sensor_id;sensor_type;location;lat;lon;timestamp;P1;durP1;ratioP1;P2;durP2;ratioP2
76752;SDS011;65687;51.308;16.916;2024-01-16T00:03:51;3.10;;;2.20;;
76752;SDS011;65687;51.308;16.916;2024-01-16T00:08:53;4.80;;;2.40;;
76752;SDS011;65687;51.308;16.916;2024-01-16T00:13:54;5.90;;;2.60;;
76752;SDS011;65687;51.308;16.916;2024-01-16T00:18:56;3.20;;;1.90;;
76752;SDS011;65687;51.308;16.916;2024-01-16T00:23:58;5.30;;;2.20;;
76752;SDS011;65687;51.308;16.916;2024-01-16T00:28:59;6.10;;;2.40;;
76752;SDS011;65687;51.308;16.916;2024-01-16T00:34:02;5.70;;;2.10;;
76752;SDS011;65687;51.308;16.916;2024-01-16T00:39:04;3.70;;;2.40;;
76752;SDS011;65687;51.308;16.916;2024-01-16T00:44:06;3.30;;;2.00;;
76752;SDS011;65687;51.308;16.916;2024-01-16T00:49:09;5.20;;;2.10;;
76752;SDS011;65687;51.308;16.916;2024-01-16T00:54:10;6.90;;;2.30;;
76752;SDS011;65687;51.308;16.916;2024-01-16T00:59:12;4.50;;;2.40;;
76752;SDS011;65687;51.308;16.916;2024-01-16T01:04:14;3.30;;;2.10;;
76752;SDS011;65687;51.308;16.916;2024-01-16T01:09:16;4.40;;;2.30;;
76752;SDS011;65687;51.308;16.916;2024-01-16T01:14:18;4.50;;;2.50;;
76752;SDS011;65687;51.308;16.916;2024-01-16T01:19:19;8.50;;;2.40;;
76752;SDS011;65687;51.308;16.916;2024-01-16T01:24:21;4.80;;;2.20;;
76752;SDS011;65687;51.308;16.916;2024-01-16T01:29:23;4.40;;;2.30;;
76752;SDS011;65687;51.308;16.916;2024-01-16T01:34:24;5.80;;;2.20;;
76752;SDS011;65687;51.308;16.916;2024-01-16T01:39:26;5.80;;;1.70;;
76752;SDS011;65687;51.308;16.916;2024-01-16T01:44:28;2.60;;;1.80;;
76752;SDS011;65687;51.308;16.916;2024-01-16T01:49:30;5.10;;;2.40;;
76752;SDS011;65687;51.308;16.916;2024-01-16T01:54:32;3.70;;;2.00;;
76752;SDS011;65687;51.308;16.916;2024-01-16T01:59:37;5.90;;;1.90;;
76752;SDS011;65687;51.308;16.916;2024-01-16T02:04:39;4.80;;;2.00;;
76752;SDS011;65687;51.308;16.916;2024-01-16T02:09:42;4.70;;;2.20;;
76752;SDS011;65687;51.308;16.916;2024-01-16T02:14:44;4.30;;;2.30;;
76752;SDS011;65687;51.308;16.916;2024-01-16T02:19:46;7.40;;;2.80;;
76752;SDS011;65687;51.308;16.916;2024-01-16T02:24:48;9.20;;;3.00;;
76752;SDS011;65687;51.308;16.916;2024-01-16T02:29:50;7.10;;;3.40;;
76752;SDS011;65687;51.308;16.916;2024-01-16T02:34:52;11.10;;;3.60;;
76752;SDS011;65687;51.308;16.916;2024-01-16T02:39:53;7.60;;;3.40;;
76752;SDS011;65687;51.308;16.916;2024-01-16T02:44:55;5.70;;;2.90;;
76752;SDS011;65687;51.308;16.916;2024-01-16T02:49:57;7.40;;;2.90;;
76752;SDS011;65687;51.308;16.916;2024-01-16T02:55:00;6.00;;;2.90;;
76752;SDS011;65687;51.308;16.916;2024-01-16T03:00:01;5.30;;;2.30;;
76752;SDS011;65687;51.308;16.916;2024-01-16T03:05:04;6.10;;;2.10;;
76752;SDS011;65687;51.308;16.916;2024-01-16T03:10:08;4.30;;;2.00;;
76752;SDS011;65687;51.308;16.916;2024-01-16T03:15:10;2.90;;;1.90;;
76752;SDS011;65687;51.308;16.916;2024-01-16T03:20:12;5.60;;;2.10;;
76752;SDS011;65687;51.308;16.916;2024-01-16T03:25:14;4.10;;;2.10;;
76752;SDS011;65687;51.308;16.916;2024-01-16T03:30:18;5.40;;;2.40;;
76752;SDS011;65687;51.308;16.916;2024-01-16T03:35:19;6.70;;;2.70;;
76752;SDS011;65687;51.308;16.916;2024-01-16T03:40:21;5.70;;;2.40;;
76752;SDS011;65687;51.308;16.916;2024-01-16T03:45:22;5.70;;;2.60;;
76752;SDS011;65687;51.308;16.916;2024-01-16T03:50:24;6.90;;;3.00;;
76752;SDS011;65687;51.308;16.916;2024-01-16T03:55:26;6.00;;;2.50;;
76752;SDS011;65687;51.308;16.916;2024-01-16T04:00:27;5.50;;;2.90;;
76752;SDS011;65687;51.308;16.916;2024-01-16T04:05:29;6.70;;;2.90;;
76752;SDS011;65687;51.308;16.916;2024-01-16T04:10:31;5.10;;;2.80;;
76752;SDS011;65687;51.308;16.916;2024-01-16T04:15:33;5.90;;;3.00;;
76752;SDS011;65687;51.308;16.916;2024-01-16T04:20:34;3.60;;;2.50;;
76752;SDS011;65687;51.308;16.916;2024-01-16T04:25:37;7.10;;;2.70;;
76752;SDS011;65687;51.308;16.916;2024-01-16T04:30:38;7.60;;;3.00;;
76752;SDS011;65687;51.308;16.916;2024-01-16T04:35:40;7.60;;;3.30;;
76752;SDS011;65687;51.308;16.916;2024-01-16T04:40:41;6.80;;;2.60;;
76752;SDS011;65687;51.308;16.916;2024-01-16T04:45:43;6.10;;;2.60;;
76752;SDS011;65687;51.308;16.916;2024-01-16T04:50:45;5.50;;;2.50;;
76752;SDS011;65687;51.308;16.916;2024-01-16T04:55:46;6.30;;;2.60;;
76752;SDS011;65687;51.308;16.916;2024-01-16T05:00:48;4.80;;;2.10;;
76752;SDS011;65687;51.308;16.916;2024-01-16T05:05:50;5.60;;;2.40;;
76752;SDS011;65687;51.308;16.916;2024-01-16T05:10:51;6.50;;;2.80;;
76752;SDS011;65687;51.308;16.916;2024-01-16T05:15:53;4.10;;;2.00;;
76752;SDS011;65687;51.308;16.916;2024-01-16T05:20:54;4.90;;;2.30;;
76752;SDS011;65687;51.308;16.916;2024-01-16T05:25:57;4.40;;;2.60;;
76752;SDS011;65687;51.308;16.916;2024-01-16T05:30:59;3.70;;;2.30;;
76752;SDS011;65687;51.308;16.916;2024-01-16T05:36:01;4.40;;;2.80;;
76752;SDS011;65687;51.308;16.916;2024-01-16T05:41:03;5.20;;;2.50;;
76752;SDS011;65687;51.308;16.916;2024-01-16T05:46:05;6.40;;;3.30;;
76752;SDS011;65687;51.308;16.916;2024-01-16T05:51:06;3.10;;;2.00;;
76752;SDS011;65687;51.308;16.916;2024-01-16T05:56:08;4.00;;;1.80;;
76752;SDS011;65687;51.308;16.916;2024-01-16T06:01:10;4.40;;;2.40;;
76752;SDS011;65687;51.308;16.916;2024-01-16T06:06:14;6.00;;;2.40;;
76752;SDS011;65687;51.308;16.916;2024-01-16T06:11:16;3.30;;;1.90;;
76752;SDS011;65687;51.308;16.916;2024-01-16T06:16:18;5.40;;;2.50;;
76752;SDS011;65687;51.308;16.916;2024-01-16T06:21:20;3.10;;;1.70;;
76752;SDS011;65687;51.308;16.916;2024-01-16T06:26:21;2.90;;;1.80;;
76752;SDS011;65687;51.308;16.916;2024-01-16T06:31:23;3.90;;;2.20;;
76752;SDS011;65687;51.308;16.916;2024-01-16T06:36:27;3.90;;;2.40;;
76752;SDS011;65687;51.308;16.916;2024-01-16T06:41:28;3.90;;;2.30;;
76752;SDS011;65687;51.308;16.916;2024-01-16T06:46:30;4.40;;;1.70;;
76752;SDS011;65687;51.308;16.916;2024-01-16T06:51:32;3.80;;;2.00;;
76752;SDS011;65687;51.308;16.916;2024-01-16T06:56:33;3.40;;;2.00;;
76752;SDS011;65687;51.308;16.916;2024-01-16T07:01:35;3.50;;;2.10;;
76752;SDS011;65687;51.308;16.916;2024-01-16T07:06:37;4.40;;;2.40;;
76752;SDS011;65687;51.308;16.916;2024-01-16T07:11:38;9.00;;;3.70;;
76752;SDS011;65687;51.308;16.916;2024-01-16T07:16:43;14.30;;;6.80;;
76752;SDS011;65687;51.308;16.916;2024-01-16T07:21:45;12.20;;;6.30;;
76752;SDS011;65687;51.308;16.916;2024-01-16T07:26:47;11.00;;;6.00;;
76752;SDS011;65687;51.308;16.916;2024-01-16T07:31:49;14.90;;;7.00;;
76752;SDS011;65687;51.308;16.916;2024-01-16T07:36:50;11.00;;;5.80;;
76752;SDS011;65687;51.308;16.916;2024-01-16T07:41:52;15.30;;;3.50;;
76752;SDS011;65687;51.308;16.916;2024-01-16T07:46:54;5.60;;;2.90;;
76752;SDS011;65687;51.308;16.916;2024-01-16T07:51:55;5.00;;;2.40;;
76752;SDS011;65687;51.308;16.916;2024-01-16T07:56:57;7.40;;;3.20;;
76752;SDS011;65687;51.308;16.916;2024-01-16T08:01:59;4.40;;;2.90;;
76752;SDS011;65687;51.308;16.916;2024-01-16T08:07:01;7.40;;;3.10;;
76752;SDS011;65687;51.308;16.916;2024-01-16T08:12:03;9.40;;;3.70;;
76752;SDS011;65687;51.308;16.916;2024-01-16T08:17:05;7.90;;;3.60;;
76752;SDS011;65687;51.308;16.916;2024-01-16T08:22:08;5.20;;;2.80;;
76752;SDS011;65687;51.308;16.916;2024-01-16T08:27:09;8.50;;;4.60;;
76752;SDS011;65687;51.308;16.916;2024-01-16T08:32:11;5.80;;;2.60;;
76752;SDS011;65687;51.308;16.916;2024-01-16T08:37:12;4.00;;;2.20;;
76752;SDS011;65687;51.308;16.916;2024-01-16T08:42:14;5.10;;;2.40;;
76752;SDS011;65687;51.308;16.916;2024-01-16T08:47:16;4.20;;;2.50;;
76752;SDS011;65687;51.308;16.916;2024-01-16T08:52:18;7.20;;;4.20;;
76752;SDS011;65687;51.308;16.916;2024-01-16T08:57:19;8.10;;;3.80;;
76752;SDS011;65687;51.308;16.916;2024-01-16T09:02:21;6.20;;;3.60;;
76752;SDS011;65687;51.308;16.916;2024-01-16T09:07:23;6.90;;;2.60;;
76752;SDS011;65687;51.308;16.916;2024-01-16T09:12:24;4.70;;;2.50;;
76752;SDS011;65687;51.308;16.916;2024-01-16T09:17:27;3.60;;;2.00;;
76752;SDS011;65687;51.308;16.916;2024-01-16T09:22:29;7.30;;;2.80;;
76752;SDS011;65687;51.308;16.916;2024-01-16T09:27:31;3.80;;;2.60;;
76752;SDS011;65687;51.308;16.916;2024-01-16T09:32:32;7.10;;;2.90;;
76752;SDS011;65687;51.308;16.916;2024-01-16T09:37:36;5.20;;;2.30;;
76752;SDS011;65687;51.308;16.916;2024-01-16T09:42:38;4.60;;;2.20;;
76752;SDS011;65687;51.308;16.916;2024-01-16T09:47:39;3.90;;;1.90;;
76752;SDS011;65687;51.308;16.916;2024-01-16T09:52:41;5.20;;;2.80;;
76752;SDS011;65687;51.308;16.916;2024-01-16T09:57:45;3.00;;;2.40;;
76752;SDS011;65687;51.308;16.916;2024-01-16T10:02:47;15.60;;;4.70;;
76752;SDS011;65687;51.308;16.916;2024-01-16T10:07:50;10.50;;;3.30;;
76752;SDS011;65687;51.308;16.916;2024-01-16T10:17:55;3.40;;;2.20;;
76752;SDS011;65687;51.308;16.916;2024-01-16T10:22:56;3.80;;;2.30;;
76752;SDS011;65687;51.308;16.916;2024-01-16T10:28:03;5.40;;;3.10;;
76752;SDS011;65687;51.308;16.916;2024-01-16T10:33:15;5.60;;;3.10;;
76752;SDS011;65687;51.308;16.916;2024-01-16T10:38:20;4.60;;;3.00;;
76752;SDS011;65687;51.308;16.916;2024-01-16T10:43:23;3.10;;;2.00;;
76752;SDS011;65687;51.308;16.916;2024-01-16T10:48:25;6.20;;;3.00;;
76752;SDS011;65687;51.308;16.916;2024-01-16T10:53:27;3.90;;;2.40;;
76752;SDS011;65687;51.308;16.916;2024-01-16T10:58:33;4.80;;;2.50;;
76752;SDS011;65687;51.308;16.916;2024-01-16T11:03:46;5.70;;;2.30;;
76752;SDS011;65687;51.308;16.916;2024-01-16T11:08:55;7.70;;;3.10;;
76752;SDS011;65687;51.308;16.916;2024-01-16T11:13:58;3.40;;;2.30;;
76752;SDS011;65687;51.308;16.916;2024-01-16T11:19:00;7.40;;;3.40;;
76752;SDS011;65687;51.308;16.916;2024-01-16T11:24:04;24.20;;;13.00;;
76752;SDS011;65687;51.308;16.916;2024-01-16T11:39:44;10.70;;;5.60;;
76752;SDS011;65687;51.308;16.916;2024-01-16T11:44:46;8.60;;;4.40;;
76752;SDS011;65687;51.308;16.916;2024-01-16T11:49:51;8.70;;;4.90;;
76752;SDS011;65687;51.308;16.916;2024-01-16T11:55:29;18.60;;;9.20;;
76752;SDS011;65687;51.308;16.916;2024-01-16T12:00:32;30.70;;;15.10;;
76752;SDS011;65687;51.308;16.916;2024-01-16T12:05:37;15.90;;;10.00;;
76752;SDS011;65687;51.308;16.916;2024-01-16T12:10:48;12.00;;;5.10;;
76752;SDS011;65687;51.308;16.916;2024-01-16T12:15:58;14.90;;;7.30;;
76752;SDS011;65687;51.308;16.916;2024-01-16T12:21:08;23.90;;;8.20;;
76752;SDS011;65687;51.308;16.916;2024-01-16T12:26:19;11.10;;;4.70;;
76752;SDS011;65687;51.308;16.916;2024-01-16T12:31:22;9.80;;;5.00;;
76752;SDS011;65687;51.308;16.916;2024-01-16T12:36:24;12.70;;;5.80;;
76752;SDS011;65687;51.308;16.916;2024-01-16T12:41:27;6.20;;;3.40;;
76752;SDS011;65687;51.308;16.916;2024-01-16T12:46:31;7.30;;;3.50;;
76752;SDS011;65687;51.308;16.916;2024-01-16T12:51:33;6.70;;;3.00;;
76752;SDS011;65687;51.308;16.916;2024-01-16T12:56:35;4.30;;;2.30;;
76752;SDS011;65687;51.308;16.916;2024-01-16T13:01:39;4.00;;;2.50;;
76752;SDS011;65687;51.308;16.916;2024-01-16T13:06:43;7.90;;;3.40;;
76752;SDS011;65687;51.308;16.916;2024-01-16T13:16:51;10.00;;;4.30;;
76752;SDS011;65687;51.308;16.916;2024-01-16T13:21:54;8.10;;;3.90;;
76752;SDS011;65687;51.308;16.916;2024-01-16T13:26:55;19.50;;;6.90;;
76752;SDS011;65687;51.308;16.916;2024-01-16T13:31:57;15.90;;;7.10;;
76752;SDS011;65687;51.308;16.916;2024-01-16T13:37:00;10.00;;;6.20;;
76752;SDS011;65687;51.308;16.916;2024-01-16T13:42:03;11.30;;;7.10;;
76752;SDS011;65687;51.308;16.916;2024-01-16T13:47:07;12.30;;;6.80;;
76752;SDS011;65687;51.308;16.916;2024-01-16T13:52:09;9.10;;;5.40;;
76752;SDS011;65687;51.308;16.916;2024-01-16T13:57:11;15.20;;;9.70;;
76752;SDS011;65687;51.308;16.916;2024-01-16T14:02:14;22.50;;;11.70;;
76752;SDS011;65687;51.308;16.916;2024-01-16T14:07:15;10.90;;;6.90;;
76752;SDS011;65687;51.308;16.916;2024-01-16T14:12:17;14.00;;;7.50;;
76752;SDS011;65687;51.308;16.916;2024-01-16T14:17:20;10.50;;;6.40;;
76752;SDS011;65687;51.308;16.916;2024-01-16T14:22:21;14.30;;;8.10;;
76752;SDS011;65687;51.308;16.916;2024-01-16T14:27:23;21.60;;;10.70;;
76752;SDS011;65687;51.308;16.916;2024-01-16T14:32:25;30.50;;;16.40;;
76752;SDS011;65687;51.308;16.916;2024-01-16T14:37:27;37.80;;;18.70;;
76752;SDS011;65687;51.308;16.916;2024-01-16T14:42:29;34.00;;;18.30;;
76752;SDS011;65687;51.308;16.916;2024-01-16T14:47:30;35.30;;;17.20;;
76752;SDS011;65687;51.308;16.916;2024-01-16T14:52:32;33.90;;;18.40;;
76752;SDS011;65687;51.308;16.916;2024-01-16T14:57:34;44.50;;;24.70;;
76752;SDS011;65687;51.308;16.916;2024-01-16T15:02:42;40.30;;;20.50;;
76752;SDS011;65687;51.308;16.916;2024-01-16T15:07:45;33.10;;;19.80;;
76752;SDS011;65687;51.308;16.916;2024-01-16T15:12:47;45.40;;;24.50;;
76752;SDS011;65687;51.308;16.916;2024-01-16T15:17:49;45.60;;;22.40;;
76752;SDS011;65687;51.308;16.916;2024-01-16T15:22:53;35.70;;;20.70;;
76752;SDS011;65687;51.308;16.916;2024-01-16T15:27:55;40.50;;;23.60;;
76752;SDS011;65687;51.308;16.916;2024-01-16T15:32:56;41.60;;;22.00;;
76752;SDS011;65687;51.308;16.916;2024-01-16T15:37:58;40.20;;;25.10;;
76752;SDS011;65687;51.308;16.916;2024-01-16T15:43:00;40.50;;;20.50;;
76752;SDS011;65687;51.308;16.916;2024-01-16T15:48:01;39.00;;;21.80;;
76752;SDS011;65687;51.308;16.916;2024-01-16T15:53:04;55.00;;;27.00;;
76752;SDS011;65687;51.308;16.916;2024-01-16T15:58:07;61.40;;;30.70;;
76752;SDS011;65687;51.308;16.916;2024-01-16T16:03:09;46.60;;;25.30;;
76752;SDS011;65687;51.308;16.916;2024-01-16T16:08:11;41.70;;;22.90;;
76752;SDS011;65687;51.308;16.916;2024-01-16T16:13:13;32.60;;;18.30;;
76752;SDS011;65687;51.308;16.916;2024-01-16T16:18:15;33.70;;;18.80;;
76752;SDS011;65687;51.308;16.916;2024-01-16T16:23:16;46.20;;;24.30;;
76752;SDS011;65687;51.308;16.916;2024-01-16T16:28:18;31.30;;;17.70;;
76752;SDS011;65687;51.308;16.916;2024-01-16T16:33:20;33.10;;;17.20;;
76752;SDS011;65687;51.308;16.916;2024-01-16T16:38:22;27.50;;;15.90;;
76752;SDS011;65687;51.308;16.916;2024-01-16T16:43:23;28.40;;;14.60;;
76752;SDS011;65687;51.308;16.916;2024-01-16T16:48:25;27.40;;;13.90;;
76752;SDS011;65687;51.308;16.916;2024-01-16T16:53:26;31.90;;;17.80;;
76752;SDS011;65687;51.308;16.916;2024-01-16T16:58:28;88.90;;;44.00;;
76752;SDS011;65687;51.308;16.916;2024-01-16T17:03:30;45.40;;;24.60;;
76752;SDS011;65687;51.308;16.916;2024-01-16T17:08:35;44.70;;;24.80;;
76752;SDS011;65687;51.308;16.916;2024-01-16T17:13:39;79.30;;;32.50;;
76752;SDS011;65687;51.308;16.916;2024-01-16T17:18:42;62.10;;;30.20;;
76752;SDS011;65687;51.308;16.916;2024-01-16T17:23:44;107.00;;;46.50;;
76752;SDS011;65687;51.308;16.916;2024-01-16T17:28:46;62.80;;;26.60;;
76752;SDS011;65687;51.308;16.916;2024-01-16T17:33:47;34.80;;;16.40;;
76752;SDS011;65687;51.308;16.916;2024-01-16T17:38:49;50.00;;;24.10;;
76752;SDS011;65687;51.308;16.916;2024-01-16T17:43:58;43.30;;;19.10;;
76752;SDS011;65687;51.308;16.916;2024-01-16T17:48:59;33.90;;;14.70;;
76752;SDS011;65687;51.308;16.916;2024-01-16T17:54:01;36.00;;;17.40;;
76752;SDS011;65687;51.308;16.916;2024-01-16T17:59:03;40.00;;;17.50;;
76752;SDS011;65687;51.308;16.916;2024-01-16T18:04:05;41.30;;;21.30;;
76752;SDS011;65687;51.308;16.916;2024-01-16T18:09:09;29.00;;;12.70;;
76752;SDS011;65687;51.308;16.916;2024-01-16T18:14:11;30.00;;;14.50;;
76752;SDS011;65687;51.308;16.916;2024-01-16T18:19:15;26.50;;;12.30;;
76752;SDS011;65687;51.308;16.916;2024-01-16T18:24:17;18.10;;;8.10;;
76752;SDS011;65687;51.308;16.916;2024-01-16T18:29:19;39.90;;;19.70;;
76752;SDS011;65687;51.308;16.916;2024-01-16T18:34:21;29.30;;;14.10;;
76752;SDS011;65687;51.308;16.916;2024-01-16T18:39:23;32.50;;;17.30;;
76752;SDS011;65687;51.308;16.916;2024-01-16T18:44:26;37.50;;;18.20;;
76752;SDS011;65687;51.308;16.916;2024-01-16T18:49:28;33.70;;;17.60;;
76752;SDS011;65687;51.308;16.916;2024-01-16T18:54:31;35.10;;;17.60;;
76752;SDS011;65687;51.308;16.916;2024-01-16T18:59:32;25.70;;;13.00;;
76752;SDS011;65687;51.308;16.916;2024-01-16T19:04:34;27.30;;;15.90;;
76752;SDS011;65687;51.308;16.916;2024-01-16T19:09:36;34.40;;;16.00;;
76752;SDS011;65687;51.308;16.916;2024-01-16T19:14:38;40.60;;;18.60;;
76752;SDS011;65687;51.308;16.916;2024-01-16T19:19:40;40.00;;;19.80;;
76752;SDS011;65687;51.308;16.916;2024-01-16T19:24:42;40.20;;;19.40;;
76752;SDS011;65687;51.308;16.916;2024-01-16T19:29:43;58.30;;;26.60;;
76752;SDS011;65687;51.308;16.916;2024-01-16T19:34:45;40.80;;;19.20;;
76752;SDS011;65687;51.308;16.916;2024-01-16T19:39:47;47.70;;;19.80;;
76752;SDS011;65687;51.308;16.916;2024-01-16T19:44:49;47.80;;;22.30;;
76752;SDS011;65687;51.308;16.916;2024-01-16T19:49:51;32.60;;;16.50;;
76752;SDS011;65687;51.308;16.916;2024-01-16T19:54:53;43.60;;;20.20;;
76752;SDS011;65687;51.308;16.916;2024-01-16T19:59:57;39.30;;;17.30;;
76752;SDS011;65687;51.308;16.916;2024-01-16T20:04:59;30.80;;;16.40;;
76752;SDS011;65687;51.308;16.916;2024-01-16T20:10:01;45.50;;;18.10;;
76752;SDS011;65687;51.308;16.916;2024-01-16T20:15:03;48.70;;;25.60;;
76752;SDS011;65687;51.308;16.916;2024-01-16T20:20:06;66.00;;;31.90;;
76752;SDS011;65687;51.308;16.916;2024-01-16T20:25:10;50.90;;;24.40;;
76752;SDS011;65687;51.308;16.916;2024-01-16T20:30:15;60.10;;;29.00;;
76752;SDS011;65687;51.308;16.916;2024-01-16T20:35:17;51.10;;;23.20;;
76752;SDS011;65687;51.308;16.916;2024-01-16T20:40:19;58.30;;;23.40;;
76752;SDS011;65687;51.308;16.916;2024-01-16T20:45:21;45.20;;;20.80;;
76752;SDS011;65687;51.308;16.916;2024-01-16T20:50:22;47.30;;;22.90;;
76752;SDS011;65687;51.308;16.916;2024-01-16T20:55:24;39.10;;;22.60;;
76752;SDS011;65687;51.308;16.916;2024-01-16T21:00:26;41.10;;;22.80;;
76752;SDS011;65687;51.308;16.916;2024-01-16T21:05:35;52.00;;;22.30;;
76752;SDS011;65687;51.308;16.916;2024-01-16T21:10:37;56.00;;;24.10;;
76752;SDS011;65687;51.308;16.916;2024-01-16T21:15:40;44.00;;;22.60;;
76752;SDS011;65687;51.308;16.916;2024-01-16T21:20:43;42.60;;;18.20;;
76752;SDS011;65687;51.308;16.916;2024-01-16T21:25:45;34.90;;;18.00;;
76752;SDS011;65687;51.308;16.916;2024-01-16T21:30:47;37.20;;;18.30;;
76752;SDS011;65687;51.308;16.916;2024-01-16T21:35:48;42.40;;;20.00;;
76752;SDS011;65687;51.308;16.916;2024-01-16T21:40:50;45.10;;;20.20;;
76752;SDS011;65687;51.308;16.916;2024-01-16T21:45:51;42.50;;;20.80;;
76752;SDS011;65687;51.308;16.916;2024-01-16T21:50:53;48.10;;;23.00;;
76752;SDS011;65687;51.308;16.916;2024-01-16T21:55:55;49.10;;;26.80;;
76752;SDS011;65687;51.308;16.916;2024-01-16T22:00:56;55.90;;;23.20;;
76752;SDS011;65687;51.308;16.916;2024-01-16T22:05:58;52.00;;;25.40;;
76752;SDS011;65687;51.308;16.916;2024-01-16T22:11:00;46.40;;;21.70;;
76752;SDS011;65687;51.308;16.916;2024-01-16T22:16:01;41.70;;;21.40;;
76752;SDS011;65687;51.308;16.916;2024-01-16T22:21:04;40.60;;;19.70;;
76752;SDS011;65687;51.308;16.916;2024-01-16T22:26:06;43.90;;;19.50;;
76752;SDS011;65687;51.308;16.916;2024-01-16T22:31:08;33.40;;;18.20;;
76752;SDS011;65687;51.308;16.916;2024-01-16T22:36:10;33.50;;;15.30;;
76752;SDS011;65687;51.308;16.916;2024-01-16T22:41:12;34.70;;;18.10;;
76752;SDS011;65687;51.308;16.916;2024-01-16T22:46:13;29.60;;;15.30;;
76752;SDS011;65687;51.308;16.916;2024-01-16T22:51:15;33.40;;;16.00;;
76752;SDS011;65687;51.308;16.916;2024-01-16T22:56:17;34.90;;;16.60;;
76752;SDS011;65687;51.308;16.916;2024-01-16T23:01:19;27.50;;;15.30;;
76752;SDS011;65687;51.308;16.916;2024-01-16T23:06:20;32.00;;;14.30;;
76752;SDS011;65687;51.308;16.916;2024-01-16T23:11:25;33.60;;;16.20;;
76752;SDS011;65687;51.308;16.916;2024-01-16T23:16:28;24.00;;;12.90;;
76752;SDS011;65687;51.308;16.916;2024-01-16T23:21:29;23.20;;;12.40;;
76752;SDS011;65687;51.308;16.916;2024-01-16T23:26:32;29.00;;;13.60;;
76752;SDS011;65687;51.308;16.916;2024-01-16T23:31:33;25.90;;;12.20;;
76752;SDS011;65687;51.308;16.916;2024-01-16T23:36:35;28.50;;;14.00;;
76752;SDS011;65687;51.308;16.916;2024-01-16T23:41:37;25.00;;;11.10;;
76752;SDS011;65687;51.308;16.916;2024-01-16T23:46:39;20.80;;;10.50;;
76752;SDS011;65687;51.308;16.916;2024-01-16T23:51:41;25.80;;;10.90;;
76752;SDS011;65687;51.308;16.916;2024-01-16T23:56:43;25.10;;;11.90;;
